UKHH/HRK METAR and TAF weather

Enter ICAO airport designator
Station Type Date Time Source
UKHH METAR 2021/03/08 11:37 UTC NOAA

UKHH 081137Z 26006MPS 1400 1100N R25/1400 SHSN BKN008 OVC020CB 00/M01 Q1007 R25/290076 NOSIG


Station Type Date Time Source
UKHH Decoded METAR 2021/03/08 11:37 UTC NOAA

Kharkiv, Ukraine (UKHH) 49-58N 036-08E 155M
Mar 08, 2021 - 06:37 AM EST / 2021.03.08 1137 UTC
Wind: from the W (260 degrees) at 13 MPH (12 KT):0
Visibility: less than 1 mile:0
Sky conditions: overcast
Weather: snow showers; Cumulonimbus clouds observed
Temperature: 32 F (0 C)
Windchill: 23 F (-5 C):1
Dew Point: 30 F (-1 C)
Relative Humidity: 92%
Pressure (altimeter): 29.74 in. Hg (1007 hPa)
ob: UKHH 081137Z 26006MPS 1400 1100N R25/1400 SHSN BKN008 OVC020CB 00/M01 Q1007 R25/290076 NOSIG
cycle: 11

Station Type Date Time Source
UKHH TAF 2021/03/08 12:24 UTC NOAA

TAF UKHH 081105Z 0812/0912 25006G12MPS 6000 -SN BKN010 TXM00/0812Z TNM06/0905Z
TEMPO 0812/0818 0600 +SHSN BKN002 BKN015CB PROB40
TEMPO 0812/0818 27009G16MPS -FZRA
BECMG 0818/0820 29005MPS
TEMPO 0820/0906 31006G12MPS 2100 -SHSN BR BKN007 BKN015CB

Example: see airport list